sensor_id;sensor_type;location;lat;lon;timestamp;pressure;altitude;pressure_sealevel;temperature;humidity
75543;BME280;64129;53.508;10.476;2023-05-07T00:01:16;101717.31;;;9.06;80.16
75543;BME280;64129;53.508;10.476;2023-05-07T00:03:43;101716.41;;;8.97;80.72
75543;BME280;64129;53.508;10.476;2023-05-07T00:06:10;101712.91;;;9.02;81.29
75543;BME280;64129;53.508;10.476;2023-05-07T00:08:38;101719.06;;;9.07;80.57
75543;BME280;64129;53.508;10.476;2023-05-07T00:11:05;101722.59;;;8.96;81.26
75543;BME280;64129;53.508;10.476;2023-05-07T00:13:31;101717.31;;;8.91;81.22
75543;BME280;64129;53.508;10.476;2023-05-07T00:16:02;101720.81;;;8.99;81.38
75543;BME280;64129;53.508;10.476;2023-05-07T00:18:29;101724.38;;;9.04;81.16
75543;BME280;64129;53.508;10.476;2023-05-07T00:20:56;101727.00;;;9.09;80.93
75543;BME280;64129;53.508;10.476;2023-05-07T00:23:22;101725.25;;;9.10;80.27
75543;BME280;64129;53.508;10.476;2023-05-07T00:25:49;101733.19;;;9.00;80.79
75543;BME280;64129;53.508;10.476;2023-05-07T00:28:16;101746.47;;;9.02;80.45
75543;BME280;64129;53.508;10.476;2023-05-07T00:30:42;101734.09;;;8.87;80.82
75543;BME280;64129;53.508;10.476;2023-05-07T00:33:09;101722.59;;;8.88;80.52
75543;BME280;64129;53.508;10.476;2023-05-07T00:35:36;101737.63;;;8.94;80.26
75543;BME280;64129;53.508;10.476;2023-05-07T00:38:02;101724.38;;;8.85;81.20
75543;BME280;64129;53.508;10.476;2023-05-07T00:40:29;101729.66;;;8.92;80.50
75543;BME280;64129;53.508;10.476;2023-05-07T00:42:55;101725.25;;;8.97;80.56
75543;BME280;64129;53.508;10.476;2023-05-07T00:45:26;101725.25;;;8.87;80.92
75543;BME280;64129;53.508;10.476;2023-05-07T00:47:55;101727.03;;;8.91;81.41
75543;BME280;64129;53.508;10.476;2023-05-07T00:50:23;101731.44;;;8.90;80.90
75543;BME280;64129;53.508;10.476;2023-05-07T00:52:50;101729.69;;;8.85;81.45
75543;BME280;64129;53.508;10.476;2023-05-07T00:55:17;101726.16;;;8.78;81.63
75543;BME280;64129;53.508;10.476;2023-05-07T00:57:44;101724.38;;;8.95;80.68
75543;BME280;64129;53.508;10.476;2023-05-07T01:00:11;101725.25;;;8.84;80.74
75543;BME280;64129;53.508;10.476;2023-05-07T01:02:39;101721.75;;;8.83;80.77
75543;BME280;64129;53.508;10.476;2023-05-07T01:05:08;101722.63;;;8.85;80.81
75543;BME280;64129;53.508;10.476;2023-05-07T01:07:37;101727.91;;;8.82;81.04
75543;BME280;64129;53.508;10.476;2023-05-07T01:10:05;101729.66;;;8.94;80.08
75543;BME280;64129;53.508;10.476;2023-05-07T01:12:33;101727.91;;;8.82;81.04
75543;BME280;64129;53.508;10.476;2023-05-07T01:15:01;101719.09;;;8.83;80.63
75543;BME280;64129;53.508;10.476;2023-05-07T01:17:28;101725.28;;;8.81;80.99
75543;BME280;64129;53.508;10.476;2023-05-07T01:19:55;101725.25;;;8.85;80.76
75543;BME280;64129;53.508;10.476;2023-05-07T01:22:29;101720.84;;;8.81;81.36
75543;BME280;64129;53.508;10.476;2023-05-07T01:24:58;101726.16;;;8.87;82.14
75543;BME280;64129;53.508;10.476;2023-05-07T01:27:27;101727.91;;;8.85;81.26
75543;BME280;64129;53.508;10.476;2023-05-07T01:29:54;101725.25;;;8.91;81.57
75543;BME280;64129;53.508;10.476;2023-05-07T01:32:28;101723.50;;;8.92;81.46
75543;BME280;64129;53.508;10.476;2023-05-07T01:34:56;101723.50;;;8.83;81.97
75543;BME280;64129;53.508;10.476;2023-05-07T01:37:24;101709.38;;;8.74;81.64
75543;BME280;64129;53.508;10.476;2023-05-07T01:39:52;101719.06;;;8.92;80.29
75543;BME280;64129;53.508;10.476;2023-05-07T01:42:19;101705.84;;;8.83;81.76
75543;BME280;64129;53.508;10.476;2023-05-07T01:44:46;101710.28;;;8.77;82.09
75543;BME280;64129;53.508;10.476;2023-05-07T01:47:13;101717.31;;;8.91;80.99
75543;BME280;64129;53.508;10.476;2023-05-07T01:49:41;101714.66;;;8.87;81.51
75543;BME280;64129;53.508;10.476;2023-05-07T01:52:10;101724.41;;;8.77;81.98
75543;BME280;64129;53.508;10.476;2023-05-07T01:54:37;101722.63;;;8.73;82.55
75543;BME280;64129;53.508;10.476;2023-05-07T01:57:04;101723.50;;;8.64;82.73
75543;BME280;64129;53.508;10.476;2023-05-07T01:59:30;101720.84;;;8.66;82.54
75543;BME280;64129;53.508;10.476;2023-05-07T02:01:57;101715.56;;;8.84;81.52
75543;BME280;64129;53.508;10.476;2023-05-07T02:04:23;101712.94;;;8.67;82.12
75543;BME280;64129;53.508;10.476;2023-05-07T02:06:52;101714.69;;;8.74;81.82
75543;BME280;64129;53.508;10.476;2023-05-07T02:09:19;101721.72;;;8.62;82.45
75543;BME280;64129;53.508;10.476;2023-05-07T02:11:48;101722.63;;;8.76;81.80
75543;BME280;64129;53.508;10.476;2023-05-07T02:14:15;101724.38;;;8.86;81.29
75543;BME280;64129;53.508;10.476;2023-05-07T02:16:42;101719.97;;;8.64;81.96
75543;BME280;64129;53.508;10.476;2023-05-07T02:19:10;101719.09;;;8.77;80.75
75543;BME280;64129;53.508;10.476;2023-05-07T02:21:37;101720.88;;;8.72;81.34
75543;BME280;64129;53.508;10.476;2023-05-07T02:24:03;101730.56;;;8.82;81.11
75543;BME280;64129;53.508;10.476;2023-05-07T02:26:30;101727.91;;;8.79;81.33
75543;BME280;64129;53.508;10.476;2023-05-07T02:28:56;101737.63;;;8.85;80.87
75543;BME280;64129;53.508;10.476;2023-05-07T02:31:23;101735.00;;;8.74;81.04
75543;BME280;64129;53.508;10.476;2023-05-07T02:33:50;101731.44;;;8.84;80.43
75543;BME280;64129;53.508;10.476;2023-05-07T02:36:16;101734.09;;;8.75;80.39
75543;BME280;64129;53.508;10.476;2023-05-07T02:38:54;101737.63;;;8.74;81.17
75543;BME280;64129;53.508;10.476;2023-05-07T02:41:21;101736.75;;;8.72;81.08
75543;BME280;64129;53.508;10.476;2023-05-07T02:43:47;101739.41;;;8.69;80.86
75543;BME280;64129;53.508;10.476;2023-05-07T02:46:14;101740.28;;;8.80;80.14
75543;BME280;64129;53.508;10.476;2023-05-07T02:48:45;101739.41;;;8.81;79.49
75543;BME280;64129;53.508;10.476;2023-05-07T02:51:12;101750.88;;;8.74;80.25
75543;BME280;64129;53.508;10.476;2023-05-07T02:53:40;101748.22;;;8.82;80.31
75543;BME280;64129;53.508;10.476;2023-05-07T02:56:07;101741.16;;;8.74;80.58
75543;BME280;64129;53.508;10.476;2023-05-07T02:58:33;101743.81;;;8.76;80.60
75543;BME280;64129;53.508;10.476;2023-05-07T03:01:01;101741.16;;;8.76;80.91
75543;BME280;64129;53.508;10.476;2023-05-07T03:03:53;101741.16;;;8.73;81.44
75543;BME280;64129;53.508;10.476;2023-05-07T03:06:21;101742.06;;;8.78;81.04
75543;BME280;64129;53.508;10.476;2023-05-07T03:08:47;101744.69;;;8.61;80.61
75543;BME280;64129;53.508;10.476;2023-05-07T03:11:14;101750.00;;;8.67;80.51
75543;BME280;64129;53.508;10.476;2023-05-07T03:13:41;101733.22;;;8.79;79.57
75543;BME280;64129;53.508;10.476;2023-05-07T03:16:07;101738.53;;;8.73;80.05
75543;BME280;64129;53.508;10.476;2023-05-07T03:18:34;101740.28;;;8.77;79.53
75543;BME280;64129;53.508;10.476;2023-05-07T03:21:01;101739.41;;;8.77;80.25
75543;BME280;64129;53.508;10.476;2023-05-07T03:23:27;101734.09;;;8.84;79.71
75543;BME280;64129;53.508;10.476;2023-05-07T03:25:54;101736.75;;;8.75;80.42
75543;BME280;64129;53.508;10.476;2023-05-07T03:28:20;101735.88;;;8.76;80.55
75543;BME280;64129;53.508;10.476;2023-05-07T03:30:54;101745.59;;;8.80;79.57
75543;BME280;64129;53.508;10.476;2023-05-07T03:33:21;101738.53;;;8.73;79.83
75543;BME280;64129;53.508;10.476;2023-05-07T03:35:48;101743.81;;;8.82;78.84
75543;BME280;64129;53.508;10.476;2023-05-07T03:38:20;101742.06;;;8.78;79.41
75543;BME280;64129;53.508;10.476;2023-05-07T03:40:46;101744.69;;;8.75;79.57
75543;BME280;64129;53.508;10.476;2023-05-07T03:43:13;101742.94;;;8.75;79.66
75543;BME280;64129;53.508;10.476;2023-05-07T03:45:44;101761.47;;;8.74;79.97
75543;BME280;64129;53.508;10.476;2023-05-07T03:48:18;101765.00;;;8.79;79.78
75543;BME280;64129;53.508;10.476;2023-05-07T03:50:45;101757.03;;;8.67;80.46
75543;BME280;64129;53.508;10.476;2023-05-07T03:53:12;101757.94;;;8.83;80.07
75543;BME280;64129;53.508;10.476;2023-05-07T03:55:39;101768.53;;;8.81;80.25
75543;BME280;64129;53.508;10.476;2023-05-07T03:58:06;101763.22;;;8.87;79.74
75543;BME280;64129;53.508;10.476;2023-05-07T04:00:32;101758.81;;;8.82;80.24
75543;BME280;64129;53.508;10.476;2023-05-07T04:03:09;101757.03;;;8.91;79.56
75543;BME280;64129;53.508;10.476;2023-05-07T04:05:35;101750.88;;;8.92;80.41
75543;BME280;64129;53.508;10.476;2023-05-07T04:08:02;101752.63;;;8.93;80.02
75543;BME280;64129;53.508;10.476;2023-05-07T04:10:41;101756.16;;;8.83;80.30
75543;BME280;64129;53.508;10.476;2023-05-07T04:13:10;101767.66;;;8.87;79.74
75543;BME280;64129;53.508;10.476;2023-05-07T04:15:37;101773.84;;;8.81;80.22
75543;BME280;64129;53.508;10.476;2023-05-07T04:18:06;101777.38;;;8.86;80.10
75543;BME280;64129;53.508;10.476;2023-05-07T04:20:34;101768.53;;;8.72;80.89
75543;BME280;64129;53.508;10.476;2023-05-07T04:23:04;101772.94;;;8.79;80.69
75543;BME280;64129;53.508;10.476;2023-05-07T04:25:31;101775.59;;;8.82;80.40
75543;BME280;64129;53.508;10.476;2023-05-07T04:28:06;101767.66;;;8.79;80.72
75543;BME280;64129;53.508;10.476;2023-05-07T04:30:33;101765.00;;;8.76;80.96
75543;BME280;64129;53.508;10.476;2023-05-07T04:33:01;101770.31;;;8.79;80.70
75543;BME280;64129;53.508;10.476;2023-05-07T04:35:29;101765.00;;;8.82;79.69
75543;BME280;64129;53.508;10.476;2023-05-07T04:37:57;101776.47;;;8.80;80.26
75543;BME280;64129;53.508;10.476;2023-05-07T04:40:23;101782.66;;;8.89;80.02
75543;BME280;64129;53.508;10.476;2023-05-07T04:42:50;101768.53;;;8.90;79.79
75543;BME280;64129;53.508;10.476;2023-05-07T04:45:17;101775.59;;;8.88;79.44
75543;BME280;64129;53.508;10.476;2023-05-07T04:47:45;101776.47;;;8.93;79.49
75543;BME280;64129;53.508;10.476;2023-05-07T04:50:12;101772.94;;;8.91;79.63
75543;BME280;64129;53.508;10.476;2023-05-07T04:52:40;101783.53;;;8.84;79.86
75543;BME280;64129;53.508;10.476;2023-05-07T04:55:07;101778.25;;;8.82;79.63
75543;BME280;64129;53.508;10.476;2023-05-07T04:57:37;101779.13;;;8.93;79.27
75543;BME280;64129;53.508;10.476;2023-05-07T05:00:07;101781.78;;;8.87;79.78
75543;BME280;64129;53.508;10.476;2023-05-07T05:02:36;101788.84;;;8.90;79.47
75543;BME280;64129;53.508;10.476;2023-05-07T05:05:04;101793.25;;;8.89;79.74
75543;BME280;64129;53.508;10.476;2023-05-07T05:07:30;101793.25;;;8.92;79.18
75543;BME280;64129;53.508;10.476;2023-05-07T05:09:58;101795.91;;;8.98;79.01
75543;BME280;64129;53.508;10.476;2023-05-07T05:12:25;101791.47;;;8.97;78.99
75543;BME280;64129;53.508;10.476;2023-05-07T05:14:52;101799.44;;;9.03;78.35
75543;BME280;64129;53.508;10.476;2023-05-07T05:17:18;101805.63;;;9.02;78.57
75543;BME280;64129;53.508;10.476;2023-05-07T05:19:45;101795.03;;;9.02;79.08
75543;BME280;64129;53.508;10.476;2023-05-07T05:22:12;101798.56;;;9.04;78.35
75543;BME280;64129;53.508;10.476;2023-05-07T05:24:38;101803.88;;;9.11;78.08
75543;BME280;64129;53.508;10.476;2023-05-07T05:27:05;101810.94;;;9.15;78.41
75543;BME280;64129;53.508;10.476;2023-05-07T05:29:31;101807.38;;;9.13;78.43
75543;BME280;64129;53.508;10.476;2023-05-07T05:31:58;101805.63;;;9.21;78.12
75543;BME280;64129;53.508;10.476;2023-05-07T05:34:26;101802.06;;;9.23;78.06
75543;BME280;64129;53.508;10.476;2023-05-07T05:36:54;101802.06;;;9.31;77.77
75543;BME280;64129;53.508;10.476;2023-05-07T05:39:21;101808.28;;;9.16;77.77
75543;BME280;64129;53.508;10.476;2023-05-07T05:41:49;101801.16;;;9.33;77.06
75543;BME280;64129;53.508;10.476;2023-05-07T05:44:16;101807.34;;;9.31;77.18
75543;BME280;64129;53.508;10.476;2023-05-07T05:46:43;101796.78;;;9.40;77.13
75543;BME280;64129;53.508;10.476;2023-05-07T05:49:10;101805.59;;;9.39;77.58
75543;BME280;64129;53.508;10.476;2023-05-07T05:51:37;101805.59;;;9.41;77.23
75543;BME280;64129;53.508;10.476;2023-05-07T05:54:04;101807.38;;;9.40;77.21
75543;BME280;64129;53.508;10.476;2023-05-07T05:56:31;101802.06;;;9.43;77.52
75543;BME280;64129;53.508;10.476;2023-05-07T05:58:58;101802.06;;;9.40;77.45
75543;BME280;64129;53.508;10.476;2023-05-07T06:01:25;101808.25;;;9.47;77.10
75543;BME280;64129;53.508;10.476;2023-05-07T06:03:53;101796.69;;;9.60;76.82
75543;BME280;64129;53.508;10.476;2023-05-07T06:06:20;101803.78;;;9.62;76.94
75543;BME280;64129;53.508;10.476;2023-05-07T06:08:46;101806.41;;;9.70;76.34
75543;BME280;64129;53.508;10.476;2023-05-07T06:11:18;101802.00;;;9.61;76.00
75543;BME280;64129;53.508;10.476;2023-05-07T06:13:46;101807.31;;;9.61;76.30
75543;BME280;64129;53.508;10.476;2023-05-07T06:16:12;101807.28;;;9.70;76.21
75543;BME280;64129;53.508;10.476;2023-05-07T06:18:39;101816.13;;;9.66;75.91
75543;BME280;64129;53.508;10.476;2023-05-07T06:21:06;101822.31;;;9.81;75.40
75543;BME280;64129;53.508;10.476;2023-05-07T06:23:33;101816.13;;;9.79;75.15
75543;BME280;64129;53.508;10.476;2023-05-07T06:26:01;101823.22;;;9.64;75.27
75543;BME280;64129;53.508;10.476;2023-05-07T06:28:33;101824.09;;;9.74;75.16
75543;BME280;64129;53.508;10.476;2023-05-07T06:31:17;101821.41;;;9.82;75.44
75543;BME280;64129;53.508;10.476;2023-05-07T06:33:50;101828.50;;;9.75;74.54
75543;BME280;64129;53.508;10.476;2023-05-07T06:36:17;101823.19;;;9.83;74.84
75543;BME280;64129;53.508;10.476;2023-05-07T06:38:44;101825.88;;;9.75;74.85
75543;BME280;64129;53.508;10.476;2023-05-07T06:41:11;101825.84;;;9.83;74.52
75543;BME280;64129;53.508;10.476;2023-05-07T06:43:38;101827.63;;;9.79;75.28
75543;BME280;64129;53.508;10.476;2023-05-07T06:46:23;101835.53;;;9.90;75.48
75543;BME280;64129;53.508;10.476;2023-05-07T06:48:50;101826.66;;;9.97;75.10
75543;BME280;64129;53.508;10.476;2023-05-07T06:51:16;101820.44;;;9.99;75.30
75543;BME280;64129;53.508;10.476;2023-05-07T06:53:43;101841.69;;;9.95;74.33
75543;BME280;64129;53.508;10.476;2023-05-07T06:56:10;101829.38;;;9.80;74.74
75543;BME280;64129;53.508;10.476;2023-05-07T06:58:38;101835.50;;;9.99;74.54
75543;BME280;64129;53.508;10.476;2023-05-07T07:01:05;101834.59;;;10.08;74.48
75543;BME280;64129;53.508;10.476;2023-05-07T07:03:33;101831.94;;;10.03;74.33
75543;BME280;64129;53.508;10.476;2023-05-07T07:05:59;101839.88;;;10.05;74.52
75543;BME280;64129;53.508;10.476;2023-05-07T07:08:28;101844.31;;;10.06;74.32
75543;BME280;64129;53.508;10.476;2023-05-07T07:10:55;101835.53;;;9.93;74.64
75543;BME280;64129;53.508;10.476;2023-05-07T07:13:22;101837.25;;;10.09;74.58
75543;BME280;64129;53.508;10.476;2023-05-07T07:15:48;101839.03;;;9.98;75.05
75543;BME280;64129;53.508;10.476;2023-05-07T07:18:16;101837.25;;;10.00;74.85
75543;BME280;64129;53.508;10.476;2023-05-07T07:20:45;101834.59;;;10.06;74.26
75543;BME280;64129;53.508;10.476;2023-05-07T07:23:12;101843.41;;;10.17;74.65
75543;BME280;64129;53.508;10.476;2023-05-07T07:25:39;101842.53;;;10.12;74.48
75543;BME280;64129;53.508;10.476;2023-05-07T07:28:06;101834.56;;;10.14;74.40
75543;BME280;64129;53.508;10.476;2023-05-07T07:30:33;101838.97;;;10.16;74.35
75543;BME280;64129;53.508;10.476;2023-05-07T07:32:59;101847.75;;;10.37;74.11
75543;BME280;64129;53.508;10.476;2023-05-07T07:35:32;101852.19;;;10.42;74.71
75543;BME280;64129;53.508;10.476;2023-05-07T07:37:59;101851.31;;;10.42;73.88
75543;BME280;64129;53.508;10.476;2023-05-07T07:40:26;101840.66;;;10.39;73.75
75543;BME280;64129;53.508;10.476;2023-05-07T07:42:53;101838.06;;;10.29;73.51
75543;BME280;64129;53.508;10.476;2023-05-07T07:45:21;101841.56;;;10.36;73.32
75543;BME280;64129;53.508;10.476;2023-05-07T07:47:49;101842.47;;;10.34;74.01
75543;BME280;64129;53.508;10.476;2023-05-07T07:50:16;101842.53;;;10.23;74.27
75543;BME280;64129;53.508;10.476;2023-05-07T07:52:48;101844.16;;;10.50;72.74
75543;BME280;64129;53.508;10.476;2023-05-07T07:55:19;101849.50;;;10.45;73.35
75543;BME280;64129;53.508;10.476;2023-05-07T07:57:51;101855.72;;;10.35;73.64
75543;BME280;64129;53.508;10.476;2023-05-07T08:00:18;101855.75;;;10.30;73.38
75543;BME280;64129;53.508;10.476;2023-05-07T08:02:50;101859.25;;;10.37;72.98
75543;BME280;64129;53.508;10.476;2023-05-07T08:05:22;101855.72;;;10.41;73.57
75543;BME280;64129;53.508;10.476;2023-05-07T08:07:50;101852.22;;;10.28;72.72
75543;BME280;64129;53.508;10.476;2023-05-07T08:10:24;101858.34;;;10.40;72.51
75543;BME280;64129;53.508;10.476;2023-05-07T08:12:56;101854.72;;;10.62;72.10
75543;BME280;64129;53.508;10.476;2023-05-07T08:15:23;101866.28;;;10.50;71.81
75543;BME280;64129;53.508;10.476;2023-05-07T08:17:50;101858.34;;;10.46;71.75
75543;BME280;64129;53.508;10.476;2023-05-07T08:20:16;101858.28;;;10.58;72.24
75543;BME280;64129;53.508;10.476;2023-05-07T08:22:43;101853.84;;;10.57;71.95
75543;BME280;64129;53.508;10.476;2023-05-07T08:25:09;101852.91;;;10.69;72.36
75543;BME280;64129;53.508;10.476;2023-05-07T08:27:37;101856.41;;;10.74;72.03
75543;BME280;64129;53.508;10.476;2023-05-07T08:30:03;101868.78;;;10.79;72.33
75543;BME280;64129;53.508;10.476;2023-05-07T08:32:30;101867.84;;;10.88;71.95
75543;BME280;64129;53.508;10.476;2023-05-07T08:34:57;101868.75;;;10.85;72.18
75543;BME280;64129;53.508;10.476;2023-05-07T08:37:23;101863.50;;;10.78;72.35
75543;BME280;64129;53.508;10.476;2023-05-07T08:39:50;101853.75;;;10.74;71.53
75543;BME280;64129;53.508;10.476;2023-05-07T08:42:23;101864.41;;;10.68;71.52
75543;BME280;64129;53.508;10.476;2023-05-07T08:44:51;101866.97;;;10.84;72.05
75543;BME280;64129;53.508;10.476;2023-05-07T08:47:22;101869.72;;;10.71;72.72
75543;BME280;64129;53.508;10.476;2023-05-07T08:49:51;101874.03;;;10.88;72.12
75543;BME280;64129;53.508;10.476;2023-05-07T08:52:20;101880.19;;;10.95;72.12
75543;BME280;64129;53.508;10.476;2023-05-07T08:54:47;101870.50;;;10.86;72.13
75543;BME280;64129;53.508;10.476;2023-05-07T08:57:14;101875.84;;;10.83;72.10
75543;BME280;64129;53.508;10.476;2023-05-07T08:59:42;101882.03;;;10.85;71.57
75543;BME280;64129;53.508;10.476;2023-05-07T09:02:09;101875.91;;;10.77;71.56
75543;BME280;64129;53.508;10.476;2023-05-07T09:04:38;101882.00;;;10.90;72.04
75543;BME280;64129;53.508;10.476;2023-05-07T09:07:05;101884.75;;;10.76;72.62
75543;BME280;64129;53.508;10.476;2023-05-07T09:09:35;101892.59;;;10.96;71.98
75543;BME280;64129;53.508;10.476;2023-05-07T09:12:03;101882.84;;;10.97;71.17
75543;BME280;64129;53.508;10.476;2023-05-07T09:14:32;101887.16;;;11.10;71.31
75543;BME280;64129;53.508;10.476;2023-05-07T09:16:59;101900.31;;;11.31;70.76
75543;BME280;64129;53.508;10.476;2023-05-07T09:19:27;101895.84;;;11.35;70.54
75543;BME280;64129;53.508;10.476;2023-05-07T09:22:01;101900.38;;;11.25;71.24
75543;BME280;64129;53.508;10.476;2023-05-07T09:24:36;101906.41;;;11.45;70.44
75543;BME280;64129;53.508;10.476;2023-05-07T09:27:06;101901.09;;;11.41;69.81
75543;BME280;64129;53.508;10.476;2023-05-07T09:29:35;101901.97;;;11.47;70.09
75543;BME280;64129;53.508;10.476;2023-05-07T09:32:07;101901.69;;;11.81;70.18
75543;BME280;64129;53.508;10.476;2023-05-07T09:34:35;101901.72;;;11.72;69.44
75543;BME280;64129;53.508;10.476;2023-05-07T09:37:02;101897.97;;;11.96;68.63
75543;BME280;64129;53.508;10.476;2023-05-07T09:39:43;101906.69;;;12.08;68.77
75543;BME280;64129;53.508;10.476;2023-05-07T09:42:12;101898.75;;;12.04;67.85
75543;BME280;64129;53.508;10.476;2023-05-07T09:44:39;101896.44;;;11.69;67.37
75543;BME280;64129;53.508;10.476;2023-05-07T09:47:11;101894.25;;;12.10;67.25
75543;BME280;64129;53.508;10.476;2023-05-07T09:49:46;101892.44;;;12.12;66.84
75543;BME280;64129;53.508;10.476;2023-05-07T09:52:17;101889.78;;;12.15;66.75
75543;BME280;64129;53.508;10.476;2023-05-07T09:54:49;101886.84;;;12.37;67.03
75543;BME280;64129;53.508;10.476;2023-05-07T09:57:19;101899.97;;;12.52;66.94
75543;BME280;64129;53.508;10.476;2023-05-07T09:59:52;101900.72;;;12.62;65.48
75543;BME280;64129;53.508;10.476;2023-05-07T10:02:20;101899.13;;;12.47;64.98
75543;BME280;64129;53.508;10.476;2023-05-07T10:04:50;101906.38;;;12.36;65.96
75543;BME280;64129;53.508;10.476;2023-05-07T10:07:23;101897.19;;;12.61;65.72
75543;BME280;64129;53.508;10.476;2023-05-07T10:09:53;101897.09;;;12.67;65.34
75543;BME280;64129;53.508;10.476;2023-05-07T10:12:28;101888.97;;;12.76;65.21
75543;BME280;64129;53.508;10.476;2023-05-07T10:14:56;101892.75;;;13.23;64.44
75543;BME280;64129;53.508;10.476;2023-05-07T10:17:24;101889.31;;;13.12;63.58
75543;BME280;64129;53.508;10.476;2023-05-07T10:19:51;101890.16;;;13.16;63.29
75543;BME280;64129;53.508;10.476;2023-05-07T10:22:20;101901.31;;;13.43;63.57
75543;BME280;64129;53.508;10.476;2023-05-07T10:24:48;101908.56;;;13.35;63.57
75543;BME280;64129;53.508;10.476;2023-05-07T10:27:19;101901.47;;;13.34;64.20
75543;BME280;64129;53.508;10.476;2023-05-07T10:32:40;101894.16;;;13.46;63.34
75543;BME280;64129;53.508;10.476;2023-05-07T10:35:20;101889.22;;;13.73;63.59
75543;BME280;64129;53.508;10.476;2023-05-07T10:37:49;101897.00;;;13.84;62.29
75543;BME280;64129;53.508;10.476;2023-05-07T10:40:16;101893.47;;;14.73;61.06
75543;BME280;64129;53.508;10.476;2023-05-07T10:42:54;101888.91;;;15.15;59.10
75543;BME280;64129;53.508;10.476;2023-05-07T10:45:22;101891.91;;;15.39;59.17
75543;BME280;64129;53.508;10.476;2023-05-07T10:48:13;101883.72;;;15.09;59.23
75543;BME280;64129;53.508;10.476;2023-05-07T10:51:19;101878.41;;;15.79;57.41
75543;BME280;64129;53.508;10.476;2023-05-07T10:56:45;101867.22;;;15.96;56.36
75543;BME280;64129;53.508;10.476;2023-05-07T11:01:58;101870.41;;;16.10;55.57
75543;BME280;64129;53.508;10.476;2023-05-07T11:04:32;101875.22;;;16.28;55.98
75543;BME280;64129;53.508;10.476;2023-05-07T11:07:14;101868.06;;;15.65;55.90
75543;BME280;64129;53.508;10.476;2023-05-07T11:15:11;101879.38;;;15.76;56.61
75543;BME280;64129;53.508;10.476;2023-05-07T11:17:55;101873.72;;;15.87;55.52
75543;BME280;64129;53.508;10.476;2023-05-07T11:21:03;101869.06;;;15.94;58.21
75543;BME280;64129;53.508;10.476;2023-05-07T11:26:23;101890.53;;;15.22;57.09
75543;BME280;64129;53.508;10.476;2023-05-07T11:28:52;101885.13;;;15.94;57.55
75543;BME280;64129;53.508;10.476;2023-05-07T11:31:25;101879.94;;;16.20;55.61
75543;BME280;64129;53.508;10.476;2023-05-07T11:33:54;101872.25;;;16.08;54.47
75543;BME280;64129;53.508;10.476;2023-05-07T11:36:22;101866.22;;;16.60;56.45
75543;BME280;64129;53.508;10.476;2023-05-07T11:38:52;101880.50;;;16.61;55.11
75543;BME280;64129;53.508;10.476;2023-05-07T11:41:18;101874.84;;;16.42;52.69
75543;BME280;64129;53.508;10.476;2023-05-07T11:43:57;101875.09;;;17.20;52.71
75543;BME280;64129;53.508;10.476;2023-05-07T11:46:23;101874.97;;;16.96;52.38
75543;BME280;64129;53.508;10.476;2023-05-07T11:48:50;101875.94;;;17.22;54.84
75543;BME280;64129;53.508;10.476;2023-05-07T11:51:24;101870.91;;;17.90;54.09
75543;BME280;64129;53.508;10.476;2023-05-07T11:53:52;101865.28;;;17.73;51.38
75543;BME280;64129;53.508;10.476;2023-05-07T11:56:19;101855.63;;;17.66;50.42
75543;BME280;64129;53.508;10.476;2023-05-07T11:58:46;101862.09;;;17.87;53.33
75543;BME280;64129;53.508;10.476;2023-05-07T12:01:14;101849.53;;;17.36;52.65
75543;BME280;64129;53.508;10.476;2023-05-07T12:03:43;101864.31;;;17.99;52.07
75543;BME280;64129;53.508;10.476;2023-05-07T12:06:13;101863.84;;;17.08;50.90
75543;BME280;64129;53.508;10.476;2023-05-07T12:08:41;101855.31;;;18.00;51.30
75543;BME280;64129;53.508;10.476;2023-05-07T12:11:14;101848.31;;;17.44;49.87
75543;BME280;64129;53.508;10.476;2023-05-07T12:13:42;101858.28;;;17.92;50.20
75543;BME280;64129;53.508;10.476;2023-05-07T12:16:09;101851.69;;;18.01;51.47
75543;BME280;64129;53.508;10.476;2023-05-07T12:18:36;101848.47;;;17.13;51.02
75543;BME280;64129;53.508;10.476;2023-05-07T12:21:05;101848.28;;;18.21;51.22
75543;BME280;64129;53.508;10.476;2023-05-07T12:23:34;101846.88;;;18.11;51.67
75543;BME280;64129;53.508;10.476;2023-05-07T12:26:01;101848.88;;;18.05;52.01
75543;BME280;64129;53.508;10.476;2023-05-07T12:28:29;101852.69;;;18.70;51.24
75543;BME280;64129;53.508;10.476;2023-05-07T12:30:57;101844.91;;;18.16;50.45
75543;BME280;64129;53.508;10.476;2023-05-07T12:33:25;101851.97;;;18.88;50.24
75543;BME280;64129;53.508;10.476;2023-05-07T12:35:54;101856.53;;;18.86;50.27
75543;BME280;64129;53.508;10.476;2023-05-07T12:38:21;101855.72;;;18.84;47.09
75543;BME280;64129;53.508;10.476;2023-05-07T12:40:50;101857.41;;;19.09;47.53
75543;BME280;64129;53.508;10.476;2023-05-07T12:43:18;101855.34;;;18.93;47.00
75543;BME280;64129;53.508;10.476;2023-05-07T12:45:46;101855.06;;;19.43;47.01
75543;BME280;64129;53.508;10.476;2023-05-07T12:48:13;101866.06;;;18.72;48.07
75543;BME280;64129;53.508;10.476;2023-05-07T12:50:39;101856.81;;;19.44;45.93
75543;BME280;64129;53.508;10.476;2023-05-07T12:53:07;101862.22;;;19.44;45.79
75543;BME280;64129;53.508;10.476;2023-05-07T12:55:51;101861.22;;;19.25;46.12
75543;BME280;64129;53.508;10.476;2023-05-07T12:58:34;101861.56;;;19.59;45.42
75543;BME280;64129;53.508;10.476;2023-05-07T13:01:05;101870.63;;;19.15;48.89
75543;BME280;64129;53.508;10.476;2023-05-07T13:03:36;101865.53;;;18.38;46.21
75543;BME280;64129;53.508;10.476;2023-05-07T13:06:06;101861.38;;;18.30;47.31
75543;BME280;64129;53.508;10.476;2023-05-07T13:08:35;101854.06;;;18.57;46.47
75543;BME280;64129;53.508;10.476;2023-05-07T13:11:04;101864.34;;;18.92;47.77